RJKI(METAR)
04/26 16:00
METAR RJKI 260700Z AUTO 30011KT 9999 SCT026 BKN029 24/19 Q1011 RMK
A2986=
戻る
トップページへ戻る
IMOC Co,.Ltd.